createdAt,value
2023-02-08T00:00:16.424Z,90.20
2023-02-08T00:03:02.108Z,90.20
2023-02-08T00:05:47.438Z,90.10
2023-02-08T00:08:33.491Z,90.20
2023-02-08T01:05:11.968Z,90.20
2023-02-08T01:07:58.509Z,90.20
2023-02-08T01:10:44.665Z,90.20
2023-02-08T01:13:30.205Z,90.30
2023-02-08T01:16:22.081Z,90.40
2023-02-08T01:19:07.644Z,90.50
2023-02-08T01:21:55.006Z,90.60
2023-02-08T01:24:41.358Z,90.50
2023-02-08T01:27:27.644Z,90.40
2023-02-08T01:30:14.920Z,90.50
2023-02-08T01:33:00.423Z,90.60
2023-02-08T01:35:51.142Z,90.70
2023-02-08T01:38:37.480Z,90.70
2023-02-08T01:41:29.417Z,90.70
2023-02-08T01:44:14.569Z,90.60
2023-02-08T01:47:00.434Z,90.50
2023-02-08T01:49:46.103Z,90.60
2023-02-08T01:52:33.111Z,90.80
2023-02-08T01:55:29.855Z,90.70
2023-02-08T01:58:22.193Z,90.80
2023-02-08T02:01:09.105Z,90.70
2023-02-08T02:03:54.888Z,90.60
2023-02-08T02:06:46.037Z,90.80
2023-02-08T02:09:40.253Z,90.80
2023-02-08T02:12:26.199Z,90.80
2023-02-08T02:15:14.038Z,90.70
2023-02-08T02:18:00.697Z,90.60
2023-02-08T02:20:59.022Z,90.60
2023-02-08T02:24:30.040Z,90.70
2023-02-08T02:27:46.790Z,90.70
2023-02-08T02:31:20.426Z,90.60
2023-02-08T02:34:06.351Z,90.70
2023-02-08T02:37:42.355Z,90.80
2023-02-08T02:40:53.390Z,90.60
2023-02-08T02:43:47.304Z,90.60
2023-02-08T02:46:55.735Z,90.70
2023-02-08T02:49:50.633Z,90.70
2023-02-08T02:52:48.543Z,90.70
2023-02-08T02:55:40.472Z,90.70
2023-02-08T02:58:27.696Z,90.70
2023-02-08T03:01:27.684Z,90.60
2023-02-08T03:04:32.153Z,90.80
2023-02-08T03:07:20.105Z,90.70
2023-02-08T03:10:23.888Z,90.70
2023-02-08T03:13:31.332Z,90.80
2023-02-08T03:16:31.665Z,90.80
2023-02-08T03:19:34.798Z,90.80
2023-02-08T03:22:32.623Z,90.70
2023-02-08T03:25:27.356Z,90.90
2023-02-08T03:28:27.183Z,90.90
2023-02-08T03:31:34.838Z,90.90
2023-02-08T03:34:31.822Z,90.90
2023-02-08T03:37:28.534Z,91.10
2023-02-08T03:40:21.665Z,90.90
2023-02-08T03:43:16.036Z,90.70
2023-02-08T03:46:22.956Z,90.70
2023-02-08T03:49:16.659Z,90.80
2023-02-08T03:52:06.368Z,90.70
2023-02-08T03:55:05.700Z,90.60
2023-02-08T03:57:59.723Z,90.60
2023-02-08T04:00:52.319Z,90.70
2023-02-08T04:03:39.393Z,90.70
2023-02-08T04:06:25.180Z,90.80
2023-02-08T04:09:10.900Z,90.80
2023-02-08T04:11:56.592Z,90.80
2023-02-08T04:14:43.511Z,90.70
2023-02-08T04:17:29.011Z,90.80
2023-02-08T04:20:14.456Z,90.70
2023-02-08T04:22:59.943Z,90.70
2023-02-08T04:25:48.186Z,90.70
2023-02-08T04:28:33.377Z,90.70
2023-02-08T04:31:19.300Z,90.70
2023-02-08T04:34:04.450Z,90.70
2023-02-08T04:36:50.041Z,90.70
2023-02-08T04:39:35.689Z,90.70
2023-02-08T04:42:21.334Z,90.80
2023-02-08T04:45:07.243Z,90.90
2023-02-08T04:47:52.845Z,90.80
2023-02-08T04:50:38.437Z,90.80
2023-02-08T04:53:29.028Z,90.90
2023-02-08T04:56:14.848Z,90.90
2023-02-08T04:59:01.537Z,90.90
2023-02-08T05:01:52.950Z,90.90
2023-02-08T05:04:38.376Z,91.00
2023-02-08T05:07:23.710Z,90.90
2023-02-08T05:10:09.512Z,91.00
2023-02-08T05:12:55.376Z,91.20
2023-02-08T05:15:40.681Z,91.00
2023-02-08T05:18:26.332Z,91.10
2023-02-08T05:21:13.402Z,91.10
2023-02-08T05:23:59.136Z,91.10
2023-02-08T05:26:44.362Z,91.00
2023-02-08T05:29:29.869Z,90.90
2023-02-08T05:32:15.525Z,91.10
2023-02-08T05:35:00.696Z,91.10
2023-02-08T05:37:52.366Z,91.20
2023-02-08T05:40:38.115Z,91.00
2023-02-08T05:43:23.397Z,91.00
2023-02-08T05:46:09.202Z,91.00
2023-02-08T05:48:55.212Z,91.10
2023-02-08T05:51:40.668Z,91.00
2023-02-08T05:54:26.348Z,91.00
2023-02-08T05:57:12.104Z,91.00
2023-02-08T06:00:01.602Z,90.90
2023-02-08T06:02:47.277Z,91.00
2023-02-08T06:05:33.114Z,90.90
2023-02-08T06:08:18.555Z,91.00
2023-02-08T06:11:04.155Z,90.90
2023-02-08T06:13:49.315Z,91.10
2023-02-08T06:16:35.089Z,91.10
2023-02-08T06:19:23.448Z,91.00
2023-02-08T06:22:11.394Z,91.00
2023-02-08T06:24:56.548Z,91.00
2023-02-08T06:27:46.110Z,91.00
2023-02-08T06:30:31.516Z,91.00
2023-02-08T06:33:17.496Z,91.00
2023-02-08T06:36:03.528Z,91.10
2023-02-08T06:38:51.031Z,91.00
2023-02-08T06:41:36.642Z,91.00
2023-02-08T06:44:22.506Z,91.00
2023-02-08T06:47:08.157Z,91.00
2023-02-08T06:49:53.957Z,91.00
2023-02-08T06:52:39.134Z,91.00
2023-02-08T06:55:24.652Z,91.00
2023-02-08T06:58:11.197Z,90.90
2023-02-08T07:00:56.667Z,90.90
2023-02-08T07:03:42.654Z,91.00
2023-02-08T07:06:34.264Z,90.90
2023-02-08T07:09:20.178Z,91.00
2023-02-08T07:12:05.848Z,91.10
2023-02-08T07:14:51.446Z,91.00
2023-02-08T07:17:36.922Z,91.10
2023-02-08T07:20:25.190Z,91.10
2023-02-08T07:23:10.686Z,91.10
2023-02-08T07:26:05.506Z,91.20
2023-02-08T07:28:51.077Z,91.20
2023-02-08T07:31:36.375Z,91.10
2023-02-08T07:34:22.335Z,91.10
2023-02-08T07:37:08.075Z,91.30
2023-02-08T07:39:53.744Z,91.20
2023-02-08T07:42:39.241Z,91.30
2023-02-08T07:45:39.583Z,91.30
2023-02-08T07:48:24.964Z,91.40
2023-02-08T07:51:11.186Z,91.30
2023-02-08T07:53:56.624Z,91.40
2023-02-08T07:56:44.708Z,91.80
2023-02-08T07:59:29.926Z,91.40
2023-02-08T08:02:16.125Z,91.40
2023-02-08T08:05:01.568Z,91.50
2023-02-08T08:07:47.122Z,91.50
2023-02-08T08:10:32.299Z,91.50
2023-02-08T08:13:17.765Z,91.40
2023-02-08T08:16:03.552Z,91.30
2023-02-08T08:18:49.174Z,91.30
2023-02-08T08:21:34.611Z,91.40
2023-02-08T08:24:20.089Z,91.30
2023-02-08T08:27:06.614Z,91.30
2023-02-08T08:29:52.443Z,91.40
2023-02-08T08:32:38.652Z,91.40
2023-02-08T08:35:23.919Z,91.30
2023-02-08T08:38:10.131Z,91.30
2023-02-08T08:40:55.482Z,91.40
2023-02-08T08:43:41.048Z,91.40
2023-02-08T08:46:26.348Z,91.40
2023-02-08T08:49:11.980Z,91.40
2023-02-08T08:52:00.579Z,91.40
2023-02-08T08:54:46.418Z,91.40
2023-02-08T08:57:31.974Z,91.40
2023-02-08T09:00:17.784Z,91.50
2023-02-08T09:03:03.337Z,91.50
2023-02-08T09:05:48.673Z,91.40
2023-02-08T09:08:34.012Z,91.40
2023-02-08T09:11:20.104Z,91.40
2023-02-08T09:14:05.612Z,91.20
2023-02-08T09:16:51.040Z,91.30
2023-02-08T09:19:36.245Z,91.30
2023-02-08T09:22:21.547Z,91.20
2023-02-08T09:25:07.935Z,91.20
2023-02-08T09:27:53.217Z,91.20
2023-02-08T09:30:38.714Z,91.20
2023-02-08T09:33:24.172Z,91.10
2023-02-08T09:36:10.761Z,91.10
2023-02-08T09:39:01.708Z,91.10
2023-02-08T09:42:13.083Z,91.00
2023-02-08T09:45:07.859Z,91.10
2023-02-08T09:48:05.270Z,91.00
2023-02-08T09:51:00.179Z,91.00
2023-02-08T09:53:52.634Z,90.90
2023-02-08T09:56:43.092Z,90.70
2023-02-08T09:59:32.300Z,90.60
2023-02-08T10:02:29.822Z,90.50
2023-02-08T10:05:22.523Z,90.50
2023-02-08T10:08:11.246Z,90.20
2023-02-08T10:11:24.357Z,89.70
2023-02-08T10:14:54.752Z,88.80
2023-02-08T10:17:40.345Z,89.00
2023-02-08T10:20:34.700Z,89.00
2023-02-08T10:23:28.974Z,89.00
2023-02-08T10:26:35.358Z,89.00
2023-02-08T10:29:29.548Z,89.10
2023-02-08T10:32:17.714Z,88.70
2023-02-08T10:35:10.148Z,88.40
2023-02-08T10:37:59.386Z,88.30
2023-02-08T10:40:51.899Z,88.40
2023-02-08T10:43:45.888Z,88.10
2023-02-08T10:47:16.569Z,88.20
2023-02-08T10:50:20.296Z,88.10
2023-02-08T10:53:06.622Z,88.10
2023-02-08T10:55:54.748Z,87.70
2023-02-08T10:58:40.164Z,87.60
2023-02-08T11:01:27.586Z,87.20
2023-02-08T11:04:13.989Z,87.20
2023-02-08T11:07:18.428Z,86.70
2023-02-08T11:10:24.820Z,86.30
2023-02-08T11:13:20.440Z,85.50
2023-02-08T11:16:09.704Z,85.20
2023-02-08T11:19:07.217Z,84.30
2023-02-08T11:21:54.459Z,83.80
2023-02-08T11:24:41.663Z,83.90
2023-02-08T11:27:42.125Z,83.90
2023-02-08T11:30:27.640Z,82.50
2023-02-08T11:33:23.235Z,81.00
2023-02-08T11:36:13.060Z,80.90
2023-02-08T11:39:02.178Z,78.40
2023-02-08T11:41:51.231Z,78.70
2023-02-08T11:44:43.464Z,78.90
2023-02-08T11:47:35.022Z,75.80
2023-02-08T11:50:32.651Z,75.10
2023-02-08T11:53:33.118Z,73.60
2023-02-08T11:56:20.042Z,67.60
2023-02-08T11:59:14.707Z,65.80
2023-02-08T12:02:51.099Z,59.80
2023-02-08T12:06:25.081Z,55.40
2023-02-08T12:09:34.194Z,48.90
2023-02-08T12:12:33.897Z,48.00
2023-02-08T12:15:58.736Z,45.70
2023-02-08T12:18:54.590Z,43.50
2023-02-08T12:21:45.528Z,41.10
2023-02-08T12:25:01.643Z,38.80
2023-02-08T12:28:01.680Z,35.60
2023-02-08T12:31:21.064Z,32.60
2023-02-08T12:34:44.790Z,31.60
2023-02-08T12:38:15.677Z,29.80
2023-02-08T12:41:10.217Z,28.60
2023-02-08T12:44:09.750Z,28.20
2023-02-08T12:47:09.064Z,26.80
2023-02-08T12:50:19.910Z,24.70
2023-02-08T12:53:33.491Z,26.20
2023-02-08T12:56:23.269Z,25.20
2023-02-08T12:59:23.957Z,23.60
2023-02-08T13:02:28.003Z,23.60
2023-02-08T13:05:21.452Z,23.60
2023-02-08T13:08:54.141Z,24.10
2023-02-08T13:11:50.001Z,25.10
2023-02-08T13:14:54.549Z,25.10
2023-02-08T13:17:51.808Z,24.40
2023-02-08T13:20:57.989Z,23.40
2023-02-08T13:23:52.787Z,20.80
2023-02-08T13:26:42.986Z,20.90
2023-02-08T13:29:33.224Z,21.80
2023-02-08T13:32:29.423Z,22.20
2023-02-08T13:35:30.581Z,20.80
2023-02-08T13:38:28.407Z,20.50
2023-02-08T13:41:17.790Z,21.10
2023-02-08T13:44:23.067Z,19.50
2023-02-08T13:47:33.104Z,20.60
2023-02-08T13:50:29.227Z,20.00
2023-02-08T13:53:17.256Z,18.80
2023-02-08T13:56:05.715Z,18.90
2023-02-08T13:58:51.159Z,19.40
2023-02-08T14:01:37.183Z,18.50
2023-02-08T14:04:33.028Z,18.90
2023-02-08T14:07:47.303Z,18.30
2023-02-08T14:10:46.022Z,17.30
2023-02-08T14:13:36.045Z,17.60
2023-02-08T14:16:29.008Z,17.50
2023-02-08T14:19:20.550Z,18.10
2023-02-08T14:22:35.040Z,17.90
2023-02-08T14:25:24.828Z,17.20
2023-02-08T14:28:35.394Z,18.20
2023-02-08T14:31:22.571Z,18.50
2023-02-08T14:34:34.946Z,18.50
2023-02-08T14:37:27.045Z,18.30
2023-02-08T14:40:47.436Z,17.90
2023-02-08T14:43:36.405Z,17.60
2023-02-08T14:46:37.810Z,17.90
2023-02-08T14:49:23.161Z,17.50
2023-02-08T14:52:26.455Z,17.20
2023-02-08T14:55:26.470Z,17.00
2023-02-08T14:58:22.039Z,17.30
2023-02-08T15:01:18.350Z,17.80
2023-02-08T15:04:04.459Z,17.80
2023-02-08T15:07:05.700Z,17.80
2023-02-08T15:09:54.649Z,17.70
2023-02-08T15:12:44.027Z,17.60
2023-02-08T15:15:39.933Z,17.90
2023-02-08T15:18:30.806Z,17.70
2023-02-08T15:21:20.188Z,17.70
2023-02-08T15:24:18.411Z,17.20
2023-02-08T15:27:04.298Z,17.50
2023-02-08T15:29:50.123Z,17.30
2023-02-08T15:32:35.628Z,17.20
2023-02-08T15:35:24.110Z,17.50
2023-02-08T15:38:20.334Z,17.90
2023-02-08T15:41:24.865Z,18.10
2023-02-08T15:44:23.105Z,18.20
2023-02-08T15:47:20.808Z,19.70
2023-02-08T15:50:18.966Z,21.70
2023-02-08T15:53:07.913Z,23.10
2023-02-08T15:56:00.625Z,24.20
2023-02-08T15:58:51.402Z,25.30
2023-02-08T16:01:40.607Z,25.00
2023-02-08T16:04:26.608Z,24.50
2023-02-08T16:07:31.213Z,24.20
2023-02-08T16:10:45.011Z,24.10
2023-02-08T16:13:39.499Z,23.90
2023-02-08T16:16:43.276Z,24.10
2023-02-08T16:19:36.163Z,24.10
2023-02-08T16:22:21.642Z,24.40
2023-02-08T16:25:29.786Z,24.90
2023-02-08T16:28:26.858Z,25.50
2023-02-08T16:31:14.823Z,26.30
2023-02-08T16:34:14.351Z,26.70
2023-02-08T16:37:05.157Z,27.40
2023-02-08T16:40:02.759Z,28.60
2023-02-08T16:42:48.167Z,29.90
2023-02-08T16:45:33.925Z,31.10
2023-02-08T16:48:34.909Z,32.80
2023-02-08T16:51:24.620Z,34.40
2023-02-08T16:54:14.489Z,35.80
2023-02-08T16:57:00.510Z,37.00
2023-02-08T16:59:46.149Z,38.10
2023-02-08T17:02:31.926Z,39.00
2023-02-08T17:05:18.590Z,39.90
2023-02-08T17:08:07.970Z,40.90
2023-02-08T17:10:58.774Z,41.90
2023-02-08T17:13:44.303Z,42.60
2023-02-08T17:16:30.957Z,43.60
2023-02-08T17:19:18.615Z,44.30
2023-02-08T17:22:04.113Z,44.90
2023-02-08T17:24:49.566Z,45.40
2023-02-08T17:27:34.926Z,46.10
2023-02-08T17:30:29.917Z,46.60
2023-02-08T17:33:18.397Z,47.20
2023-02-08T17:36:04.455Z,47.50
2023-02-08T17:38:49.990Z,48.10
2023-02-08T17:41:35.723Z,48.70
2023-02-08T17:44:21.218Z,49.30
2023-02-08T17:47:09.461Z,49.80
2023-02-08T17:49:54.961Z,50.30
2023-02-08T17:52:44.318Z,50.60
2023-02-08T17:55:29.892Z,51.20
2023-02-08T17:58:15.618Z,51.50
2023-02-08T18:01:00.996Z,52.10
2023-02-08T18:03:48.289Z,52.30
2023-02-08T18:06:36.256Z,52.60
2023-02-08T18:09:25.325Z,52.80
2023-02-08T18:12:10.685Z,53.10
2023-02-08T18:14:57.520Z,53.20
2023-02-08T18:17:44.200Z,53.30
2023-02-08T18:20:29.734Z,53.40
2023-02-08T18:23:15.244Z,53.40
2023-02-08T18:26:09.720Z,53.40
2023-02-08T18:28:58.305Z,53.50
2023-02-08T18:31:55.844Z,53.30
2023-02-08T18:34:42.975Z,53.50
2023-02-08T18:37:28.624Z,53.50
2023-02-08T18:40:17.555Z,53.60
2023-02-08T18:43:03.007Z,53.80
2023-02-08T18:46:04.693Z,54.10
2023-02-08T18:48:56.251Z,54.30
2023-02-08T18:54:45.323Z,54.50
2023-02-08T18:57:30.581Z,54.60
2023-02-08T19:00:16.859Z,54.60
2023-02-08T19:03:02.111Z,54.50
2023-02-08T19:05:48.113Z,54.60
2023-02-08T19:08:34.339Z,54.50
2023-02-08T19:11:25.338Z,54.70
2023-02-08T19:14:13.001Z,54.70
2023-02-08T19:16:58.995Z,54.80
2023-02-08T19:19:44.598Z,54.90
2023-02-08T19:22:30.280Z,54.80
2023-02-08T19:25:16.069Z,54.90
2023-02-08T19:28:01.443Z,54.80
2023-02-08T19:30:47.189Z,54.80
2023-02-08T19:33:33.112Z,55.00
2023-02-08T19:36:21.477Z,55.00
2023-02-08T19:39:07.808Z,55.20
2023-02-08T19:41:54.157Z,55.40
2023-02-08T19:44:39.597Z,55.50
2023-02-08T19:47:48.403Z,55.60
2023-02-08T19:50:36.376Z,55.70
2023-02-08T19:53:21.645Z,55.70
2023-02-08T19:56:09.587Z,55.70
2023-02-08T19:58:54.634Z,55.80
2023-02-08T20:01:40.198Z,56.00
2023-02-08T20:04:25.865Z,56.20
2023-02-08T20:07:11.863Z,56.60
2023-02-08T20:09:57.291Z,56.60
2023-02-08T20:12:43.998Z,56.60
2023-02-08T20:15:32.526Z,56.40
2023-02-08T20:18:21.883Z,56.50
2023-02-08T20:21:11.360Z,56.70
2023-02-08T20:23:57.344Z,56.80
2023-02-08T20:26:44.896Z,57.00
2023-02-08T20:29:30.738Z,57.30
2023-02-08T20:32:18.293Z,57.30
2023-02-08T20:35:04.650Z,57.40
2023-02-08T20:37:55.884Z,57.30
2023-02-08T20:40:41.720Z,57.10
2023-02-08T20:43:27.530Z,56.80
2023-02-08T20:46:19.131Z,56.80
2023-02-08T20:49:06.068Z,56.70
2023-02-08T20:51:53.012Z,56.70
2023-02-08T20:54:39.183Z,56.90
2023-02-08T20:57:25.465Z,57.10
2023-02-08T21:00:17.459Z,57.20
2023-02-08T21:03:05.657Z,57.20
2023-02-08T21:05:50.812Z,57.20
2023-02-08T21:08:36.338Z,57.20
2023-02-08T21:11:24.170Z,57.20
2023-02-08T21:14:19.094Z,57.30
2023-02-08T21:17:05.289Z,57.30
2023-02-08T21:19:51.009Z,57.40
2023-02-08T21:22:36.360Z,57.30
2023-02-08T21:25:21.908Z,57.40
2023-02-08T21:28:07.406Z,57.50
2023-02-08T21:30:57.310Z,57.60
2023-02-08T21:33:44.480Z,57.60
2023-02-08T21:36:30.622Z,57.60
2023-02-08T21:39:16.666Z,57.70
2023-02-08T21:42:02.690Z,58.00
2023-02-08T21:44:48.203Z,58.10
2023-02-08T21:47:33.848Z,58.10
2023-02-08T21:50:37.573Z,58.30
2023-02-08T21:53:41.257Z,58.40
2023-02-08T21:56:26.644Z,58.80
2023-02-08T21:59:11.984Z,59.00
2023-02-08T22:01:57.378Z,59.20
2023-02-08T22:04:46.674Z,59.30
2023-02-08T22:07:48.743Z,59.50
2023-02-08T22:10:34.476Z,59.50
2023-02-08T22:13:25.887Z,59.80
2023-02-08T22:16:11.761Z,59.80
2023-02-08T22:18:59.842Z,60.00
2023-02-08T22:21:48.343Z,60.20
2023-02-08T22:24:37.917Z,60.30
2023-02-08T22:27:23.468Z,60.40
2023-02-08T22:30:10.904Z,60.80
2023-02-08T22:32:56.486Z,61.20
2023-02-08T22:35:42.214Z,61.60
2023-02-08T22:38:28.352Z,61.80
2023-02-08T22:41:15.759Z,62.20
2023-02-08T22:44:01.560Z,62.40
2023-02-08T22:46:50.316Z,62.50
2023-02-08T22:49:36.256Z,62.60
2023-02-08T22:52:21.849Z,62.60
2023-02-08T22:55:09.886Z,62.40
2023-02-08T22:57:55.849Z,62.50
2023-02-08T23:00:46.006Z,62.90
2023-02-08T23:03:33.171Z,63.20
2023-02-08T23:06:19.031Z,63.60
2023-02-08T23:09:06.693Z,64.00
2023-02-08T23:11:52.101Z,64.10
2023-02-08T23:14:37.709Z,64.20
2023-02-08T23:17:23.392Z,64.10
2023-02-08T23:20:10.213Z,64.00
2023-02-08T23:22:55.758Z,64.00
2023-02-08T23:25:42.316Z,64.30
2023-02-08T23:28:28.233Z,64.70
2023-02-08T23:31:14.973Z,65.00
2023-02-08T23:34:01.141Z,66.20
2023-02-08T23:36:46.669Z,65.70
2023-02-08T23:39:35.498Z,65.90
2023-02-08T23:42:27.503Z,66.00
2023-02-08T23:45:13.005Z,66.90
2023-02-08T23:47:58.715Z,66.40
2023-02-08T23:50:45.835Z,66.60
2023-02-08T23:53:32.479Z,66.60
2023-02-08T23:56:27.056Z,66.50
2023-02-08T23:59:12.896Z,66.70
